GCHI/VDE METAR and TAF weather

Enter ICAO airport designator
Station Type Date Time Source
GCHI METAR 2018/07/19 07:00 UTC NOAA

GCHI 190700Z 36013KT 330V030 9999 SCT023 21/17 Q1018


Station Type Date Time Source
GCHI Decoded METAR 2018/07/19 07:00 UTC NOAA

Hierro / Aeropuerto, Spain (GCHI) 27-49N 017-53W 32M
Jul 19, 2018 - 03:00 AM EDT / 2018.07.19 0700 UTC
Wind: from the N (360 degrees) at 15 MPH (13 KT) (direction variable):0
Visibility: greater than 7 mile(s):0
Sky conditions: partly cloudy
Temperature: 69 F (21 C)
Dew Point: 62 F (17 C)
Relative Humidity: 77%
Pressure (altimeter): 30.06 in. Hg (1018 hPa)
ob: GCHI 190700Z 36013KT 330V030 9999 SCT023 21/17 Q1018
cycle: 7

Station Type Date Time Source
GCHI TAF 2018/07/19 03:27 UTC NOAA

TAF GCHI 190200Z 1903/2003 35013KT 9999 SCT030 TX25/1914Z TN21/1905Z PROB40
TEMPO 1903/1920 36015G25KT


Example: see airport list